Time;durP1;ratioP1;P1;durP2;ratioP2;P2;SDS_P1;SDS_P2;PMS_P1;PMS_P2;Temp;Humidity;BMP_temperature;BMP_pressure;BME280_temperature;BME280_humidity;BME280_pressure;Samples;Min_cycle;Max_cycle;Signal;HPM_P1;HPM_P2
2021/12/16 04:01:37;;;;;;;55.70;24.35;;;7.50;99.90;;;;;;5465180;23;20110;-84
2021/12/16 04:04:04;;;;;;;64.45;25.58;;;7.50;99.90;;;;;;4978288;28;20042;-85
2021/12/16 04:06:35;;;;;;;53.78;23.63;;;7.50;99.90;;;;;;4978401;28;20046;-85
2021/12/16 04:09:03;;;;;;;58.10;24.58;;;7.40;99.90;;;;;;4995233;28;20460;-86
2021/12/16 04:11:39;;;;;;;59.65;24.75;;;7.40;99.90;;;;;;4993975;28;20096;-86
2021/12/16 04:14:06;;;;;;;66.65;26.30;;;7.40;99.90;;;;;;4995035;28;20189;-85
2021/12/16 04:16:37;;;;;;;69.47;25.77;;;7.40;99.90;;;;;;4993512;28;20043;-84
2021/12/16 04:19:09;;;;;;;62.70;25.92;;;7.30;99.90;;;;;;4993298;28;20065;-85
2021/12/16 04:21:37;;;;;;;67.57;25.88;;;7.30;99.90;;;;;;4993077;28;20057;-86
2021/12/16 04:24:03;;;;;;;56.97;25.08;;;7.30;99.90;;;;;;4993346;28;20166;-86
2021/12/16 04:26:29;;;;;;;66.95;26.20;;;7.20;99.90;;;;;;4993523;28;20049;-87
2021/12/16 04:28:55;;;;;;;64.15;26.52;;;7.20;99.90;;;;;;4993524;28;20050;-87
2021/12/16 04:31:21;;;;;;;74.20;26.90;;;7.20;99.90;;;;;;4993672;28;20100;-86
2021/12/16 04:33:47;;;;;;;67.95;26.02;;;7.20;99.90;;;;;;4993017;28;20038;-87
2021/12/16 04:36:14;;;;;;;67.55;28.33;;;7.10;99.90;;;;;;4994097;28;20057;-86
2021/12/16 04:38:43;;;;;;;63.15;26.75;;;7.10;99.90;;;;;;4993755;28;20122;-86
2021/12/16 04:41:11;;;;;;;80.75;28.30;;;7.10;99.90;;;;;;4992858;28;20038;-86
2021/12/16 04:43:41;;;;;;;70.85;28.23;;;7.10;99.90;;;;;;4992873;28;20046;-86
2021/12/16 04:46:09;;;;;;;60.72;25.65;;;7.10;99.90;;;;;;4976972;28;20362;-87
2021/12/16 04:48:36;;;;;;;79.43;27.70;;;7.20;99.90;;;;;;4992748;28;20074;-86
2021/12/16 04:51:03;;;;;;;77.43;27.63;;;7.20;99.90;;;;;;4992897;28;20042;-86
2021/12/16 04:53:30;;;;;;;71.40;27.38;;;7.20;99.90;;;;;;4995473;28;20531;-85
2021/12/16 04:55:56;;;;;;;72.28;27.08;;;7.20;99.90;;;;;;4996072;28;20046;-84
2021/12/16 04:58:22;;;;;;;73.07;27.45;;;7.20;99.90;;;;;;4979861;28;20038;-86
2021/12/16 05:00:49;;;;;;;75.22;28.58;;;7.20;99.90;;;;;;4997250;28;20035;-86
2021/12/16 05:03:15;;;;;;;70.13;29.08;;;7.20;99.90;;;;;;4996150;28;20096;-86
2021/12/16 05:05:40;;;;;;;73.25;28.02;;;7.30;99.90;;;;;;4996145;28;20038;-86
2021/12/16 05:08:06;;;;;;;68.75;27.30;;;7.30;99.90;;;;;;4996052;28;20526;-85
2021/12/16 05:10:32;;;;;;;66.00;27.63;;;7.30;99.90;;;;;;4996380;28;20038;-86
2021/12/16 05:12:59;;;;;;;70.07;28.63;;;7.30;99.90;;;;;;4996152;28;20053;-87
2021/12/16 05:15:30;;;;;;;69.38;27.33;;;7.30;99.90;;;;;;4996381;28;20046;-85
2021/12/16 05:17:58;;;;;;;69.20;27.27;;;7.30;99.90;;;;;;4996662;28;20090;-86
2021/12/16 05:20:33;;;;;;;72.40;27.40;;;7.40;99.90;;;;;;4980724;28;20035;-85
2021/12/16 05:26:05;;;;;;;68.38;26.58;;;7.40;99.90;;;;;;4996547;28;20137;-85
2021/12/16 05:28:31;;;;;;;67.22;26.50;;;7.40;99.90;;;;;;4979928;28;20042;-85
2021/12/16 05:30:57;;;;;;;71.00;27.77;;;7.40;99.90;;;;;;4979307;28;20045;-85
2021/12/16 05:33:24;;;;;;;68.05;27.40;;;7.40;99.90;;;;;;4995437;28;20069;-85
2021/12/16 05:35:51;;;;;;;73.90;27.98;;;7.40;99.90;;;;;;4979694;28;20042;-86
2021/12/16 05:38:17;;;;;;;71.85;27.40;;;7.40;99.90;;;;;;4995637;28;20480;-84
2021/12/16 05:40:43;;;;;;;69.68;27.95;;;7.40;99.90;;;;;;4995741;28;20034;-86
2021/12/16 05:43:12;;;;;;;75.00;28.48;;;7.40;99.90;;;;;;4995584;28;20053;-85
2021/12/16 05:45:38;;;;;;;73.50;27.70;;;7.40;99.90;;;;;;4995649;28;20050;-87
2021/12/16 05:48:07;;;;;;;77.88;29.10;;;7.40;99.90;;;;;;4995726;28;20137;-87
2021/12/16 05:50:35;;;;;;;78.65;28.50;;;7.30;99.90;;;;;;4995283;28;20053;-86
2021/12/16 05:53:02;;;;;;;72.90;28.40;;;7.30;99.90;;;;;;4978999;28;20564;-86
2021/12/16 05:55:28;;;;;;;73.03;28.13;;;7.30;99.90;;;;;;4995474;28;20039;-86
2021/12/16 05:57:56;;;;;;;95.22;29.50;;;7.30;99.90;;;;;;4995375;28;20101;-87
2021/12/16 06:00:29;;;;;;;87.90;30.65;;;7.20;99.90;;;;;;4995656;28;20123;-87
2021/12/16 06:02:54;;;;;;;81.90;30.05;;;7.10;99.90;;;;;;4997508;28;20459;-87
2021/12/16 06:05:20;;;;;;;84.68;31.48;;;7.10;99.90;;;;;;4995838;28;20048;-87
2021/12/16 06:07:46;;;;;;;87.07;30.90;;;7.10;99.90;;;;;;4994802;28;20161;-86
2021/12/16 06:10:47;;;;;;;86.82;31.02;;;7.10;99.90;;;;;;4994931;28;20507;-85
2021/12/16 06:13:01;;;;;;;92.88;30.58;;;7.10;99.90;;;;;;4994911;28;20125;-85
2021/12/16 06:15:59;;;;;;;116.97;33.38;;;7.10;99.90;;;;;;4996180;28;20376;-87
2021/12/16 06:26:56;;;;;;;85.97;31.05;;;7.00;99.90;;;;;;4955482;28;20050;-84
2021/12/16 06:29:22;;;;;;;99.45;33.13;;;7.10;99.90;;;;;;4995011;28;20046;-86
2021/12/16 06:31:48;;;;;;;97.20;35.25;;;7.10;99.90;;;;;;4994693;28;20116;-86
2021/12/16 06:34:14;;;;;;;102.88;35.88;;;7.10;99.90;;;;;;4978376;28;20073;-86
2021/12/16 06:36:39;;;;;;;96.07;34.47;;;7.10;99.90;;;;;;4978360;28;20073;-86
2021/12/16 06:39:05;;;;;;;107.38;35.88;;;7.10;99.90;;;;;;4978413;28;20460;-85
2021/12/16 06:41:35;;;;;;;107.97;35.17;;;7.10;99.90;;;;;;4996083;28;20048;-86
2021/12/16 06:44:14;;;;;;;97.97;33.50;;;7.10;99.90;;;;;;4994647;28;20085;-86
2021/12/16 06:46:42;;;;;;;94.20;34.75;;;7.20;99.90;;;;;;4995692;28;20046;-85
2021/12/16 06:49:10;;;;;;;99.18;33.83;;;7.20;99.90;;;;;;4994542;28;20050;-85
2021/12/16 06:51:44;;;;;;;108.50;35.30;;;7.20;99.90;;;;;;4994179;28;20042;-85
2021/12/16 06:54:15;;;;;;;112.85;34.17;;;7.10;99.90;;;;;;4978381;28;20401;-87
2021/12/16 06:57:11;;;;;;;104.70;35.10;;;7.10;99.90;;;;;;4978100;28;20042;-81
2021/12/16 06:59:42;;;;;;;117.35;35.65;;;7.10;99.90;;;;;;4994824;28;20039;-86
2021/12/16 07:02:19;;;;;;;112.75;36.45;;;7.10;99.90;;;;;;4994359;28;20122;-85
2021/12/16 07:04:45;;;;;;;110.07;35.17;;;7.20;99.90;;;;;;4994667;28;20050;-87
2021/12/16 07:07:13;;;;;;;112.40;35.88;;;7.10;99.90;;;;;;4993947;28;20047;-86
2021/12/16 07:09:39;;;;;;;120.72;37.35;;;7.10;99.90;;;;;;4994139;28;20038;-86
2021/12/16 07:12:07;;;;;;;132.32;37.90;;;7.10;99.90;;;;;;4993317;28;20038;-82
2021/12/16 07:14:39;;;;;;;134.27;39.00;;;7.00;99.90;;;;;;4994019;28;20117;-85
2021/12/16 07:17:11;;;;;;;112.75;37.20;;;7.00;99.90;;;;;;4993268;28;20472;-88
2021/12/16 07:19:39;;;;;;;107.95;35.00;;;7.00;99.90;;;;;;4978089;28;20096;-86
2021/12/16 07:22:06;;;;;;;134.75;40.30;;;7.00;99.90;;;;;;4994867;28;20042;-85
2021/12/16 07:24:32;;;;;;;118.95;37.33;;;6.90;99.90;;;;;;4977627;28;20049;-85
2021/12/16 07:26:58;;;;;;;118.82;38.20;;;6.90;99.90;;;;;;4993835;28;20500;-84
2021/12/16 07:29:28;;;;;;;116.95;37.70;;;6.90;99.90;;;;;;4995297;28;20213;-86
2021/12/16 07:31:54;;;;;;;137.35;38.42;;;6.90;99.90;;;;;;4976437;28;20050;-86
2021/12/16 07:34:21;;;;;;;161.05;42.58;;;6.90;99.90;;;;;;4977604;28;20047;-88
2021/12/16 07:36:47;;;;;;;160.02;41.90;;;6.90;99.90;;;;;;4977712;28;20507;-86
2021/12/16 07:39:16;;;;;;;129.20;39.90;;;6.90;99.90;;;;;;4993884;28;20045;-86
2021/12/16 07:41:46;;;;;;;147.20;41.63;;;6.90;99.90;;;;;;4994938;28;20042;-88
2021/12/16 07:44:12;;;;;;;184.13;44.75;;;6.90;99.90;;;;;;4977649;28;20038;-89
2021/12/16 07:46:48;;;;;;;245.75;48.92;;;6.90;99.90;;;;;;4993300;28;20077;-87
2021/12/16 07:49:21;;;;;;;240.13;42.95;;;6.80;99.90;;;;;;4977545;28;20403;-88
2021/12/16 07:51:46;;;;;;;479.00;60.67;;;6.80;99.90;;;;;;4977240;28;20085;-87
2021/12/16 07:54:15;;;;;;;480.58;55.90;;;6.80;99.90;;;;;;4993356;28;20072;-87
2021/12/16 07:56:41;;;;;;;521.63;66.20;;;6.80;99.90;;;;;;4977264;28;20480;-89
2021/12/16 07:59:08;;;;;;;586.95;63.85;;;6.70;99.90;;;;;;4994341;28;20547;-86
2021/12/16 08:01:39;;;;;;;412.35;49.63;;;6.60;99.90;;;;;;4992867;28;20039;-89
2021/12/16 08:04:05;;;;;;;448.85;46.95;;;6.60;99.90;;;;;;4976871;28;20096;-87
2021/12/16 08:06:31;;;;;;;477.10;47.45;;;6.50;99.90;;;;;;5000315;28;20094;-86
2021/12/16 08:09:06;;;;;;;638.30;60.08;;;6.50;99.90;;;;;;4976920;28;20042;-87
2021/12/16 08:11:37;;;;;;;415.08;44.75;;;6.40;99.90;;;;;;4973636;28;20527;-87
2021/12/16 08:14:03;;;;;;;467.77;47.47;;;6.30;99.90;;;;;;4957883;28;20566;-89
2021/12/16 08:16:30;;;;;;;486.70;48.83;;;6.30;99.90;;;;;;4957811;28;20047;-85
2021/12/16 08:18:56;;;;;;;474.38;47.35;;;6.20;99.90;;;;;;4957434;28;20038;-84
2021/12/16 08:21:27;;;;;;;484.40;47.17;;;6.20;99.90;;;;;;4974134;28;20424;-87
2021/12/16 08:23:58;;;;;;;392.90;40.92;;;6.20;99.90;;;;;;4973587;28;20039;-86
2021/12/16 08:26:24;;;;;;;439.45;44.33;;;6.10;99.90;;;;;;5003287;28;20574;-88
2021/12/16 08:28:50;;;;;;;328.88;38.35;;;6.10;99.90;;;;;;4980293;28;20035;-88
2021/12/16 08:31:16;;;;;;;364.90;41.38;;;6.10;99.90;;;;;;4997080;28;20072;-88
2021/12/16 08:33:42;;;;;;;409.95;41.78;;;6.10;99.90;;;;;;4980882;28;20048;-86
2021/12/16 08:36:08;;;;;;;345.25;44.05;;;6.10;99.90;;;;;;4996265;28;20038;-88
2021/12/16 08:38:36;;;;;;;441.25;46.42;;;6.10;99.90;;;;;;4999773;28;20038;-87
2021/12/16 08:41:08;;;;;;;280.73;35.05;;;6.20;99.90;;;;;;5000007;28;20038;-87
2021/12/16 08:43:35;;;;;;;287.25;35.80;;;6.10;99.90;;;;;;5015728;28;20037;-85
2021/12/16 08:46:02;;;;;;;450.23;52.70;;;6.20;99.90;;;;;;5016892;28;20046;-89
2021/12/16 08:48:28;;;;;;;359.55;44.97;;;6.20;99.90;;;;;;5017798;28;20396;-86
2021/12/16 08:50:55;;;;;;;349.23;41.47;;;6.20;99.90;;;;;;4999468;28;20061;-86
2021/12/16 08:53:23;;;;;;;363.73;42.45;;;6.20;99.90;;;;;;5016278;28;20388;-88
2021/12/16 08:55:50;;;;;;;421.83;46.45;;;6.20;99.90;;;;;;5012324;28;20044;-88
2021/12/16 08:58:16;;;;;;;259.17;36.08;;;6.20;99.90;;;;;;4980367;28;20484;-87
2021/12/16 09:00:50;;;;;;;223.48;34.25;;;6.20;99.90;;;;;;5002423;28;20045;-84
2021/12/16 09:03:15;;;;;;;304.48;39.92;;;6.20;99.90;;;;;;4996169;28;20038;-87
2021/12/16 09:05:42;;;;;;;399.27;45.53;;;6.30;99.90;;;;;;5010614;28;20038;-88
2021/12/16 09:08:07;;;;;;;293.35;35.70;;;6.30;99.90;;;;;;5015942;28;20100;-85
2021/12/16 09:10:36;;;;;;;251.27;36.10;;;6.30;99.90;;;;;;5014843;28;20042;-86
2021/12/16 09:13:09;;;;;;;275.00;36.58;;;6.30;99.90;;;;;;4982190;28;20039;-87
2021/12/16 09:15:44;;;;;;;242.98;32.03;;;6.40;99.90;;;;;;4996217;28;20492;-89
2021/12/16 09:18:10;;;;;;;463.60;51.45;;;6.40;99.90;;;;;;4980124;28;20088;-85
2021/12/16 09:20:37;;;;;;;292.33;40.15;;;6.40;99.90;;;;;;5004753;28;20045;-84
2021/12/16 09:23:04;;;;;;;430.52;45.97;;;6.40;99.90;;;;;;4979290;28;20564;-88
2021/12/16 09:25:30;;;;;;;411.85;41.53;;;6.40;99.90;;;;;;4979561;28;20057;-86
2021/12/16 09:27:56;;;;;;;236.48;34.15;;;6.40;99.90;;;;;;4998500;28;20030;-86
2021/12/16 09:30:24;;;;;;;438.30;46.28;;;6.50;99.90;;;;;;4981615;28;20080;-85
2021/12/16 09:32:52;;;;;;;287.15;34.15;;;6.50;99.90;;;;;;4997988;28;20485;-86
2021/12/16 09:35:20;;;;;;;361.85;43.75;;;6.40;99.90;;;;;;4980464;28;20045;-85
2021/12/16 09:37:46;;;;;;;435.45;47.80;;;6.40;99.90;;;;;;4997384;28;20034;-86
2021/12/16 09:40:21;;;;;;;300.55;36.55;;;6.40;99.90;;;;;;4996032;28;20049;-87
2021/12/16 09:42:48;;;;;;;294.52;35.50;;;6.40;99.90;;;;;;4995970;28;20050;-87
2021/12/16 09:45:15;;;;;;;298.42;40.95;;;6.40;99.90;;;;;;4979443;28;20046;-88
2021/12/16 09:47:43;;;;;;;381.58;42.63;;;6.40;99.90;;;;;;4995821;28;20050;-86
2021/12/16 09:50:12;;;;;;;336.70;41.97;;;6.40;99.90;;;;;;4995566;28;20077;-84
2021/12/16 09:52:38;;;;;;;255.60;37.17;;;6.50;99.90;;;;;;4995180;28;20046;-87
2021/12/16 09:55:05;;;;;;;218.85;36.53;;;6.50;99.90;;;;;;4979525;28;20039;-88
2021/12/16 09:57:31;;;;;;;298.88;40.03;;;6.50;99.90;;;;;;4995030;28;20507;-86
2021/12/16 09:59:57;;;;;;;408.70;47.45;;;6.60;99.90;;;;;;4994982;28;20073;-84
2021/12/16 10:02:24;;;;;;;261.83;36.40;;;6.60;99.90;;;;;;4996529;28;20038;-86
2021/12/16 10:04:50;;;;;;;266.45;35.05;;;6.70;99.90;;;;;;4995138;28;20042;-88
2021/12/16 10:07:20;;;;;;;236.15;33.55;;;6.70;99.90;;;;;;4979088;28;20038;-87
2021/12/16 10:09:48;;;;;;;203.10;33.08;;;6.70;99.90;;;;;;4994843;28;20030;-86
2021/12/16 10:12:18;;;;;;;320.90;43.78;;;6.60;99.90;;;;;;4996282;28;20077;-88
2021/12/16 10:14:59;;;;;;;271.05;35.78;;;6.60;99.90;;;;;;4995279;28;20342;-87
2021/12/16 10:17:31;;;;;;;366.05;42.35;;;6.70;99.90;;;;;;4996414;28;20042;-88
2021/12/16 10:20:03;;;;;;;285.10;39.83;;;6.70;99.90;;;;;;4996387;28;20036;-87
2021/12/16 10:22:38;;;;;;;389.85;46.80;;;6.80;99.90;;;;;;4995164;28;20129;-88
2021/12/16 10:25:33;;;;;;;228.15;32.90;;;6.80;99.90;;;;;;4995536;28;20049;-86
2021/12/16 10:28:09;;;;;;;269.08;39.03;;;6.90;99.90;;;;;;4976209;28;20046;-87
2021/12/16 10:30:50;;;;;;;223.88;33.92;;;7.00;99.90;;;;;;4996313;28;20098;-86
2021/12/16 10:33:27;;;;;;;262.92;39.05;;;7.10;99.90;;;;;;4979934;28;20125;-86
2021/12/16 10:36:12;;;;;;;290.05;40.75;;;7.10;99.90;;;;;;5010045;28;20085;-86
2021/12/16 10:38:53;;;;;;;251.70;35.88;;;7.10;99.90;;;;;;5017799;28;20054;-83
2021/12/16 10:41:26;;;;;;;237.15;35.28;;;7.20;99.90;;;;;;5017450;28;20081;-86
2021/12/16 10:44:09;;;;;;;189.60;29.60;;;7.30;99.90;;;;;;5000380;28;20052;-85
2021/12/16 10:46:38;;;;;;;208.60;30.10;;;7.20;99.90;;;;;;4996991;28;20061;-85
2021/12/16 10:49:07;;;;;;;227.45;32.33;;;7.30;99.90;;;;;;4979576;28;20073;-86
2021/12/16 10:51:38;;;;;;;310.50;35.97;;;7.30;99.90;;;;;;4978108;28;20381;-88
2021/12/16 10:54:22;;;;;;;252.43;35.13;;;7.40;99.90;;;;;;4978217;28;20097;-86
2021/12/16 10:56:53;;;;;;;305.63;40.97;;;7.30;99.90;;;;;;4994491;28;20125;-85
2021/12/16 10:59:22;;;;;;;335.02;40.47;;;7.40;99.90;;;;;;4995807;28;20118;-85
2021/12/16 11:02:21;;;;;;;312.77;39.15;;;7.30;99.90;;;;;;4993712;28;20042;-85
2021/12/16 11:04:53;;;;;;;338.10;42.85;;;7.30;99.90;;;;;;4994015;28;20046;-86
2021/12/16 11:07:31;;;;;;;246.75;36.60;;;7.30;99.90;;;;;;4994167;28;20034;-86
2021/12/16 11:10:16;;;;;;;285.63;40.22;;;7.40;99.90;;;;;;4995295;28;20049;-85
2021/12/16 11:13:02;;;;;;;181.85;33.08;;;7.40;99.90;;;;;;4994255;28;20498;-87
2021/12/16 11:15:30;;;;;;;209.10;36.28;;;7.40;99.90;;;;;;4994237;28;20370;-87
2021/12/16 11:18:05;;;;;;;120.85;28.95;;;7.50;99.90;;;;;;4982416;28;20499;-88
2021/12/16 11:20:45;;;;;;;185.23;34.72;;;7.50;99.90;;;;;;4997327;28;20049;-88
2021/12/16 11:23:14;;;;;;;222.23;38.25;;;7.50;99.90;;;;;;4981283;28;20038;-87
2021/12/16 11:25:55;;;;;;;218.00;36.58;;;7.60;99.90;;;;;;4988237;28;20530;-89
2021/12/16 11:28:31;;;;;;;84.35;27.15;;;7.70;99.90;;;;;;5013321;28;20544;-87
2021/12/16 11:31:13;;;;;;;132.40;32.75;;;7.70;99.90;;;;;;5013364;28;20049;-85
2021/12/16 11:33:46;;;;;;;134.93;28.10;;;7.70;99.90;;;;;;4997209;28;20050;-90
2021/12/16 11:36:21;;;;;;;188.30;35.28;;;7.80;99.90;;;;;;5013172;28;20487;-84
2021/12/16 11:39:01;;;;;;;106.68;29.42;;;7.80;99.90;;;;;;4996833;28;20076;-87
2021/12/16 11:41:31;;;;;;;95.20;26.83;;;7.90;99.90;;;;;;5014393;28;20488;-85
2021/12/16 11:44:12;;;;;;;197.77;33.65;;;7.90;99.90;;;;;;5012758;28;20053;-85
2021/12/16 11:46:40;;;;;;;86.03;27.33;;;7.90;99.90;;;;;;5013121;28;20046;-87
2021/12/16 11:49:21;;;;;;;84.20;25.00;;;7.90;99.90;;;;;;5012818;28;20037;-86
2021/12/16 11:51:52;;;;;;;92.40;27.77;;;7.90;99.90;;;;;;4986938;28;20484;-87
2021/12/16 11:54:29;;;;;;;85.57;26.52;;;7.90;99.90;;;;;;4990577;28;20124;-87
2021/12/16 11:57:20;;;;;;;84.03;25.70;;;8.00;99.90;;;;;;5000923;28;20129;-87
2021/12/16 11:59:52;;;;;;;83.47;25.67;;;8.00;99.90;;;;;;4995688;28;20034;-86
2021/12/16 12:02:26;;;;;;;95.82;29.75;;;8.00;99.90;;;;;;4995167;28;20488;-88
2021/12/16 12:05:11;;;;;;;100.45;27.77;;;8.00;99.90;;;;;;4996089;28;20033;-87
2021/12/16 12:07:42;;;;;;;125.30;26.90;;;8.00;99.90;;;;;;5013986;28;20065;-86
2021/12/16 12:10:08;;;;;;;117.57;26.65;;;8.00;99.90;;;;;;5012758;28;20042;-87
2021/12/16 12:12:46;;;;;;;129.38;25.13;;;8.00;99.90;;;;;;5012058;28;20045;-88
2021/12/16 12:15:15;;;;;;;62.17;22.83;;;8.00;99.90;;;;;;4996113;28;20033;-89
2021/12/16 12:17:52;;;;;;;77.47;24.38;;;8.00;99.90;;;;;;5014199;28;20048;-87
2021/12/16 12:20:30;;;;;;;121.20;27.05;;;8.00;99.90;;;;;;5012379;28;20038;-85
2021/12/16 12:22:57;;;;;;;133.70;24.50;;;8.00;99.90;;;;;;5013730;28;20070;-86
2021/12/16 12:25:23;;;;;;;135.90;24.55;;;8.00;99.90;;;;;;5013803;28;20053;-87
2021/12/16 12:27:49;;;;;;;105.07;23.15;;;8.00;99.90;;;;;;5012379;28;20046;-86
2021/12/16 12:30:16;;;;;;;67.75;22.08;;;8.00;99.90;;;;;;5012657;28;20410;-86
2021/12/16 12:32:45;;;;;;;82.57;22.70;;;8.00;99.90;;;;;;5011893;28;20057;-86
2021/12/16 12:35:31;;;;;;;106.85;24.30;;;8.00;99.90;;;;;;5012186;28;20033;-87
2021/12/16 12:37:59;;;;;;;165.75;27.85;;;8.00;99.90;;;;;;4995656;28;20052;-86
2021/12/16 12:40:36;;;;;;;161.75;27.45;;;8.00;99.90;;;;;;4996282;28;20136;-86
2021/12/16 12:43:05;;;;;;;114.15;25.70;;;8.10;99.90;;;;;;5013526;28;20048;-86
2021/12/16 12:45:41;;;;;;;146.00;26.20;;;8.10;99.90;;;;;;4995676;28;20495;-86
2021/12/16 12:48:12;;;;;;;230.18;31.98;;;8.10;99.90;;;;;;5012577;28;20053;-86
2021/12/16 12:50:40;;;;;;;173.07;27.02;;;8.00;99.90;;;;;;5012578;28;20104;-85
2021/12/16 12:53:11;;;;;;;129.43;25.38;;;8.00;99.90;;;;;;5012375;28;20128;-87
2021/12/16 12:55:36;;;;;;;207.00;30.88;;;8.00;99.90;;;;;;5012246;28;20120;-85
2021/12/16 12:58:11;;;;;;;146.38;27.17;;;8.00;99.90;;;;;;4990001;28;20519;-86
2021/12/16 13:00:45;;;;;;;217.30;29.83;;;8.10;99.90;;;;;;4977298;28;20069;-88
2021/12/16 13:03:17;;;;;;;144.45;26.50;;;8.10;99.90;;;;;;5010213;28;20048;-86
2021/12/16 13:06:05;;;;;;;202.80;29.63;;;8.10;99.90;;;;;;5011947;28;20089;-84
2021/12/16 13:08:36;;;;;;;182.40;27.67;;;8.10;99.90;;;;;;4990266;28;20077;-85
2021/12/16 13:11:04;;;;;;;207.25;26.55;;;8.10;99.90;;;;;;5004883;28;20046;-85
2021/12/16 13:13:46;;;;;;;193.00;27.85;;;8.10;99.90;;;;;;4976127;28;20519;-85
2021/12/16 13:24:45;;;;;;;220.63;27.20;;;8.10;99.90;;;;;;4995622;28;20046;-84
2021/12/16 13:33:20;;;;;;;221.70;28.27;;;8.10;99.90;;;;;;4963515;28;20085;-84
2021/12/16 13:35:52;;;;;;;318.35;31.35;;;8.10;99.90;;;;;;4979301;28;20034;-86
2021/12/16 13:38:20;;;;;;;254.63;27.92;;;8.10;99.90;;;;;;4996944;28;20038;-85
2021/12/16 13:40:47;;;;;;;375.42;35.20;;;8.10;99.90;;;;;;4996911;28;20095;-84
2021/12/16 13:43:26;;;;;;;215.68;28.35;;;8.10;99.90;;;;;;4996413;28;20108;-84
2021/12/16 14:01:03;;;;;;;160.25;28.42;;;8.20;99.90;;;;;;5014465;28;20492;-86
2021/12/16 14:03:01;;;;;;;160.60;28.95;;;8.20;99.90;;;;;;5014578;28;20046;-86
2021/12/16 14:06:21;;;;;;;172.73;33.30;;;8.20;99.90;;;;;;5014512;28;20057;-86
2021/12/16 14:08:52;;;;;;;162.93;31.10;;;8.20;99.90;;;;;;4958645;28;20050;-87
2021/12/16 14:18:14;;;;;;;164.20;33.13;;;8.20;99.90;;;;;;5014221;28;20057;-88
2021/12/16 14:32:29;;;;;;;169.25;30.65;;;8.40;99.90;;;;;;5010529;28;20046;-85
2021/12/16 14:45:40;;;;;;;192.90;32.42;;;8.30;99.90;;;;;;5014021;28;20085;-86
2021/12/16 14:50:46;;;;;;;136.52;25.45;;;8.30;99.90;;;;;;5014329;28;20476;-86
2021/12/16 14:53:14;;;;;;;181.90;29.80;;;8.30;99.90;;;;;;5015229;28;20136;-86
2021/12/16 14:55:40;;;;;;;237.40;29.10;;;8.30;99.90;;;;;;5014257;28;20042;-86
2021/12/16 14:58:07;;;;;;;251.95;29.25;;;8.20;99.90;;;;;;5000309;28;20128;-86
2021/12/16 15:00:38;;;;;;;298.20;30.17;;;8.20;99.90;;;;;;5032165;28;20054;-85
2021/12/16 15:03:17;;;;;;;310.48;29.92;;;8.20;99.90;;;;;;5035378;28;20025;-84
2021/12/16 15:05:47;;;;;;;271.45;29.88;;;8.20;99.90;;;;;;5014413;28;20041;-86
2021/12/16 15:08:35;;;;;;;261.58;30.60;;;8.20;99.90;;;;;;5024458;28;20052;-85
2021/12/16 15:11:05;;;;;;;271.10;32.97;;;8.20;99.90;;;;;;5014283;28;20046;-86
2021/12/16 15:16:22;;;;;;;268.00;32.10;;;8.20;99.90;;;;;;5015160;28;20045;-85
2021/12/16 15:36:51;;;;;;;430.33;43.10;;;8.20;99.90;;;;;;5013856;28;20042;-87
2021/12/16 15:44:52;;;;;;;441.35;44.03;;;8.20;99.90;;;;;;5012428;28;20321;-86
2021/12/16 15:47:20;;;;;;;416.45;40.03;;;8.10;99.90;;;;;;5002912;28;20495;-85
2021/12/16 15:49:46;;;;;;;419.35;43.72;;;8.10;99.90;;;;;;4999292;28;20050;-85
2021/12/16 15:52:12;;;;;;;438.35;43.35;;;8.10;99.90;;;;;;5010885;28;20077;-88
2021/12/16 15:54:44;;;;;;;270.42;37.35;;;8.10;99.90;;;;;;5012161;28;20045;-84
2021/12/16 15:57:11;;;;;;;566.42;52.53;;;8.10;99.90;;;;;;5012780;28;20070;-84
2021/12/16 15:59:40;;;;;;;450.02;48.90;;;8.10;99.90;;;;;;5012658;28;20088;-87
2021/12/16 16:02:06;;;;;;;487.90;49.75;;;8.10;99.90;;;;;;5012136;28;20042;-85
2021/12/16 16:04:35;;;;;;;333.75;44.03;;;8.10;99.90;;;;;;5012486;28;20511;-85
2021/12/16 16:07:07;;;;;;;303.83;41.25;;;8.10;99.90;;;;;;5013763;28;20041;-86
2021/12/16 16:09:45;;;;;;;361.88;47.38;;;8.10;99.90;;;;;;5013746;28;20472;-86
2021/12/16 16:12:16;;;;;;;425.00;51.63;;;8.10;99.90;;;;;;4996081;28;20049;-85
2021/12/16 16:14:46;;;;;;;472.33;58.90;;;8.10;99.90;;;;;;5012859;28;20472;-86
2021/12/16 16:17:18;;;;;;;372.88;51.97;;;8.10;99.90;;;;;;5012275;28;20034;-82
2021/12/16 16:19:46;;;;;;;409.17;49.78;;;8.10;99.90;;;;;;5013659;28;20120;-82
2021/12/16 16:22:11;;;;;;;362.60;50.75;;;8.10;99.90;;;;;;5011907;28;20380;-85
2021/12/16 16:24:44;;;;;;;401.75;55.42;;;8.10;99.90;;;;;;5012436;28;20061;-87
2021/12/16 16:27:17;;;;;;;340.77;44.15;;;8.10;99.90;;;;;;5012445;28;20121;-85
2021/12/16 16:29:46;;;;;;;323.40;39.75;;;8.10;99.90;;;;;;4995844;28;20050;-83
2021/12/16 16:32:12;;;;;;;323.77;39.38;;;8.10;99.90;;;;;;5012585;28;20050;-87
2021/12/16 16:34:47;;;;;;;413.77;44.70;;;8.10;99.90;;;;;;5011912;28;20101;-87
2021/12/16 16:37:21;;;;;;;341.85;40.25;;;8.10;99.90;;;;;;5012535;28;20049;-87
2021/12/16 16:39:54;;;;;;;349.88;43.58;;;8.10;99.90;;;;;;5013635;28;20396;-87
2021/12/16 16:42:20;;;;;;;332.60;40.85;;;8.10;99.90;;;;;;4995762;28;20511;-88
2021/12/16 16:44:53;;;;;;;372.52;44.45;;;8.10;99.90;;;;;;5013309;28;20077;-88
2021/12/16 16:47:46;;;;;;;393.05;42.67;;;8.10;99.90;;;;;;5011824;28;20128;-85
2021/12/16 16:50:11;;;;;;;370.70;41.88;;;8.10;99.90;;;;;;5014311;28;20077;-87
2021/12/16 16:52:47;;;;;;;422.95;46.10;;;8.10;99.90;;;;;;5015837;28;20503;-84
2021/12/16 16:55:26;;;;;;;337.55;40.78;;;8.10;99.90;;;;;;5015799;28;20084;-85
2021/12/16 16:58:05;;;;;;;312.45;37.28;;;8.00;99.90;;;;;;5015990;28;20484;-84
2021/12/16 17:00:37;;;;;;;372.83;40.83;;;8.00;99.90;;;;;;4999387;28;20407;-85
2021/12/16 17:03:12;;;;;;;305.40;37.83;;;8.00;99.90;;;;;;5015678;28;20120;-83
2021/12/16 17:05:43;;;;;;;364.35;42.00;;;8.00;99.90;;;;;;4998981;28;20048;-83
2021/12/16 17:08:16;;;;;;;384.40;42.13;;;8.00;99.90;;;;;;5015503;28;20038;-85
2021/12/16 17:10:45;;;;;;;343.85;40.28;;;8.00;99.90;;;;;;4985698;28;20125;-85
2021/12/16 17:13:38;;;;;;;368.35;41.83;;;8.00;99.90;;;;;;5011090;28;20096;-84
2021/12/16 17:18:44;;;;;;;356.17;40.63;;;8.00;99.90;;;;;;4995079;28;20070;-84
2021/12/16 17:21:28;;;;;;;352.15;40.42;;;8.00;99.90;;;;;;4995478;28;20042;-86
2021/12/16 17:24:13;;;;;;;341.38;40.83;;;8.00;99.90;;;;;;4995195;28;20045;-85
2021/12/16 17:26:47;;;;;;;376.33;46.33;;;8.00;99.90;;;;;;4995165;28;20074;-87
2021/12/16 17:29:21;;;;;;;299.92;42.05;;;8.00;99.90;;;;;;4995972;28;20046;-84
2021/12/16 17:31:50;;;;;;;415.05;47.30;;;8.00;99.90;;;;;;4978763;28;20130;-83
2021/12/16 17:34:22;;;;;;;295.90;40.65;;;8.00;99.90;;;;;;4994921;28;20042;-82
2021/12/16 17:37:22;;;;;;;388.02;46.85;;;8.00;99.90;;;;;;4995028;28;20097;-86
2021/12/16 17:39:53;;;;;;;295.02;41.22;;;8.00;99.90;;;;;;4926600;28;20050;-84
2021/12/16 17:42:32;;;;;;;341.63;42.58;;;8.00;99.90;;;;;;4978507;28;20129;-86
2021/12/16 17:45:02;;;;;;;376.42;46.55;;;8.00;99.90;;;;;;4995414;28;20042;-86
2021/12/16 17:47:31;;;;;;;446.27;45.42;;;8.00;99.90;;;;;;4995533;28;20133;-84
2021/12/16 17:49:57;;;;;;;408.10;46.25;;;8.10;99.90;;;;;;4979253;28;20046;-85
2021/12/16 17:52:30;;;;;;;327.52;42.50;;;8.10;99.90;;;;;;4995265;28;20125;-85
2021/12/16 17:55:00;;;;;;;391.95;44.25;;;8.10;99.90;;;;;;4978831;28;20042;-87
2021/12/16 17:57:37;;;;;;;337.40;43.38;;;8.10;99.90;;;;;;4995066;28;20046;-86
2021/12/16 18:00:10;;;;;;;362.45;43.78;;;8.10;99.90;;;;;;4995144;28;20034;-87
2021/12/16 18:02:43;;;;;;;324.70;42.20;;;8.10;99.90;;;;;;4978716;28;20042;-85
2021/12/16 18:05:08;;;;;;;381.00;44.60;;;8.10;99.90;;;;;;4995202;28;20078;-85
2021/12/16 18:07:39;;;;;;;372.67;45.10;;;8.10;99.90;;;;;;4994674;28;20065;-84
2021/12/16 18:10:05;;;;;;;334.38;43.78;;;8.10;99.90;;;;;;4994503;28;20085;-86
2021/12/16 18:12:32;;;;;;;404.80;46.97;;;8.10;99.90;;;;;;4994354;28;20038;-83
2021/12/16 18:15:08;;;;;;;327.77;44.33;;;8.10;99.90;;;;;;4978174;28;20034;-85
2021/12/16 18:17:39;;;;;;;475.20;49.35;;;8.10;99.90;;;;;;4994513;28;20555;-87
2021/12/16 18:20:30;;;;;;;317.95;44.42;;;8.20;99.90;;;;;;4978111;28;20042;-86
2021/12/16 18:23:04;;;;;;;344.05;45.67;;;8.20;99.90;;;;;;4978203;28;20057;-85
2021/12/16 18:25:35;;;;;;;339.05;45.05;;;8.20;99.90;;;;;;4994523;28;20038;-84
2021/12/16 18:28:12;;;;;;;260.60;42.38;;;8.20;99.90;;;;;;4994453;28;20057;-85
2021/12/16 18:30:47;;;;;;;305.35;43.17;;;8.20;99.90;;;;;;4977976;28;20435;-85